Time;durP1;ratioP1;P1;durP2;ratioP2;P2;SDS_P1;SDS_P2;PMS_P1;PMS_P2;Temp;Humidity;BMP_temperature;BMP_pressure;BME280_temperature;BME280_humidity;BME280_pressure;Samples;Min_cycle;Max_cycle;Signal;HPM_P1;HPM_P2
2022/06/25 00:01:58;;;;;;;0.20;0.20;;;17.00;99.90;;;;;;5033517;28;20213;-62
2022/06/25 00:07:08;;;;;;;0.10;0.10;;;16.90;99.90;;;;;;5033570;28;20041;-61
2022/06/25 00:09:34;;;;;;;0.00;0.00;;;16.90;99.90;;;;;;5032522;28;20390;-61
2022/06/25 00:14:44;;;;;;;0.90;0.60;;;16.80;99.90;;;;;;5033513;28;20026;-61
2022/06/25 00:17:10;;;;;;;0.25;0.25;;;16.90;99.90;;;;;;5033257;28;20125;-61
2022/06/25 00:19:36;;;;;;;0.40;0.20;;;16.90;99.90;;;;;;5031913;28;20087;-61
2022/06/25 00:22:02;;;;;;;0.55;0.28;;;16.90;99.90;;;;;;5033248;28;20033;-62
2022/06/25 00:24:28;;;;;;;0.45;0.45;;;16.90;99.90;;;;;;5033169;28;20564;-62
2022/06/25 00:26:53;;;;;;;0.10;0.10;;;17.00;99.90;;;;;;5033309;28;20048;-62
2022/06/25 00:29:19;;;;;;;0.20;0.20;;;16.90;99.90;;;;;;5032967;28;20040;-62
2022/06/25 00:31:45;;;;;;;0.10;0.10;;;16.80;99.90;;;;;;5031632;28;20420;-62
2022/06/25 00:34:11;;;;;;;0.55;0.55;;;16.80;99.90;;;;;;5033043;28;20075;-62
2022/06/25 00:36:37;;;;;;;0.08;0.08;;;16.80;99.90;;;;;;5031848;28;20029;-62
2022/06/25 00:39:03;;;;;;;0.22;0.15;;;16.80;99.90;;;;;;5031689;28;20520;-62
2022/06/25 00:41:30;;;;;;;1.50;0.82;;;16.70;99.90;;;;;;5032895;28;20457;-62
2022/06/25 00:43:55;;;;;;;0.77;0.73;;;16.70;99.90;;;;;;5014864;28;20029;-62
2022/06/25 00:46:21;;;;;;;0.40;0.40;;;16.70;99.90;;;;;;5032765;28;20036;-62
2022/06/25 00:48:47;;;;;;;0.57;0.57;;;16.70;99.90;;;;;;5033012;28;20026;-62
2022/06/25 00:51:16;;;;;;;0.30;0.30;;;16.70;99.90;;;;;;5032782;28;20037;-62
2022/06/25 00:53:46;;;;;;;0.10;0.10;;;16.70;99.90;;;;;;5032084;28;20125;-62
2022/06/25 00:56:14;;;;;;;0.30;0.30;;;16.70;99.90;;;;;;5031226;28;20033;-62
2022/06/25 00:58:43;;;;;;;2.72;0.90;;;16.80;99.90;;;;;;5031313;28;20026;-62
2022/06/25 01:01:09;;;;;;;0.43;0.43;;;16.80;99.90;;;;;;5031430;28;20121;-62
2022/06/25 01:03:39;;;;;;;0.52;0.52;;;16.80;99.90;;;;;;5031944;28;20033;-62
2022/06/25 01:06:05;;;;;;;1.85;0.95;;;16.90;99.90;;;;;;5024173;28;20491;-62
2022/06/25 01:08:33;;;;;;;0.65;0.65;;;16.90;99.90;;;;;;5029797;28;20033;-62
2022/06/25 01:11:00;;;;;;;0.35;0.35;;;16.90;99.90;;;;;;5030910;28;20492;-62
2022/06/25 01:13:26;;;;;;;0.32;0.32;;;16.90;99.90;;;;;;5031639;28;20040;-62
2022/06/25 01:15:52;;;;;;;1.35;1.25;;;17.00;99.90;;;;;;5031985;28;20026;-62
2022/06/25 01:18:18;;;;;;;0.20;0.20;;;17.00;99.90;;;;;;5032399;28;20071;-62
2022/06/25 01:20:44;;;;;;;0.73;0.73;;;17.00;99.90;;;;;;5032230;28;20029;-62
2022/06/25 01:23:11;;;;;;;0.00;0.00;;;17.00;99.90;;;;;;5031714;28;20481;-62
2022/06/25 01:25:38;;;;;;;1.35;1.02;;;16.90;99.90;;;;;;5031776;28;20037;-62
2022/06/25 01:28:05;;;;;;;0.30;0.30;;;17.00;99.90;;;;;;5030869;28;20032;-62
2022/06/25 01:30:31;;;;;;;0.10;0.10;;;17.00;99.90;;;;;;5030681;28;20033;-62
2022/06/25 01:32:57;;;;;;;0.35;0.35;;;16.90;99.90;;;;;;5029955;28;20084;-62
2022/06/25 01:35:23;;;;;;;0.20;0.20;;;16.90;99.90;;;;;;5031917;28;20021;-62
2022/06/25 01:37:49;;;;;;;0.15;0.15;;;16.90;99.90;;;;;;5031746;28;20025;-62
2022/06/25 01:40:15;;;;;;;0.32;0.32;;;16.90;99.90;;;;;;5032131;28;20026;-62
2022/06/25 01:42:59;;;;;;;0.22;0.22;;;16.70;99.90;;;;;;5030003;28;20026;-62
2022/06/25 01:45:32;;;;;;;0.50;0.50;;;16.60;99.90;;;;;;5030744;28;20115;-62
2022/06/25 01:47:59;;;;;;;0.20;0.20;;;16.60;99.90;;;;;;5030521;28;20098;-62
2022/06/25 01:50:27;;;;;;;0.15;0.15;;;16.60;99.90;;;;;;5030502;28;20500;-62
2022/06/25 01:52:53;;;;;;;0.00;0.00;;;16.50;99.90;;;;;;5029828;28;20037;-62
2022/06/25 01:55:19;;;;;;;1.02;0.98;;;16.50;99.90;;;;;;5031243;28;20109;-62
2022/06/25 01:57:46;;;;;;;2.55;1.50;;;16.50;99.90;;;;;;5030327;28;20052;-62
2022/06/25 02:00:25;;;;;;;0.15;0.15;;;16.50;99.90;;;;;;5030200;28;20116;-62
2022/06/25 02:02:53;;;;;;;3.83;1.45;;;16.40;99.90;;;;;;5029743;28;20033;-62
2022/06/25 02:08:09;;;;;;;1.38;1.17;;;16.40;99.90;;;;;;5031085;28;20029;-62
2022/06/25 02:10:34;;;;;;;1.48;0.77;;;16.40;99.90;;;;;;5031326;28;20029;-63
2022/06/25 02:13:00;;;;;;;0.05;0.05;;;16.50;99.90;;;;;;5030739;28;20038;-63
2022/06/25 02:15:26;;;;;;;12.02;0.80;;;16.50;99.90;;;;;;5031305;28;20452;-63
2022/06/25 02:17:52;;;;;;;0.60;0.38;;;16.50;99.90;;;;;;5031199;28;20052;-62
2022/06/25 02:20:17;;;;;;;1.10;0.85;;;16.40;99.90;;;;;;5013453;28;20108;-62
2022/06/25 02:22:43;;;;;;;0.22;0.22;;;16.40;99.90;;;;;;5030968;28;20029;-62
2022/06/25 02:25:09;;;;;;;0.05;0.05;;;16.40;99.90;;;;;;5031329;28;20029;-62
2022/06/25 02:27:35;;;;;;;0.38;0.38;;;16.40;99.90;;;;;;5031199;28;20069;-62
2022/06/25 02:30:01;;;;;;;1.88;0.52;;;16.40;99.90;;;;;;5029861;28;20739;-62
2022/06/25 02:32:30;;;;;;;0.00;0.00;;;16.40;99.90;;;;;;5030582;28;20072;-62
2022/06/25 02:34:56;;;;;;;1.88;1.52;;;16.40;99.90;;;;;;5031110;28;20476;-62
2022/06/25 02:37:22;;;;;;;2.63;0.73;;;16.50;99.90;;;;;;5029592;28;20099;-62
2022/06/25 02:39:48;;;;;;;0.45;0.45;;;16.50;99.90;;;;;;5029937;28;20108;-62
2022/06/25 02:42:14;;;;;;;2.45;0.75;;;16.50;99.90;;;;;;5030559;28;20124;-62
2022/06/25 02:44:39;;;;;;;0.00;0.00;;;16.50;99.90;;;;;;5029719;28;20034;-62
2022/06/25 02:47:05;;;;;;;4.47;1.17;;;16.50;99.90;;;;;;5031037;28;20033;-62
2022/06/25 02:49:31;;;;;;;0.10;0.10;;;16.40;99.90;;;;;;5030963;28;20373;-62
2022/06/25 02:51:57;;;;;;;0.25;0.25;;;16.40;99.90;;;;;;5031192;28;20485;-62
2022/06/25 02:54:23;;;;;;;0.20;0.20;;;16.30;99.90;;;;;;5029156;28;20471;-63
2022/06/25 02:59:37;;;;;;;0.30;0.30;;;16.30;99.90;;;;;;5030770;28;20488;-62
2022/06/25 03:02:03;;;;;;;0.10;0.10;;;16.30;99.90;;;;;;5029531;28;20068;-62
2022/06/25 03:04:29;;;;;;;0.30;0.30;;;16.30;99.90;;;;;;5030823;28;20021;-62
2022/06/25 03:06:55;;;;;;;0.73;0.57;;;16.30;99.90;;;;;;5030772;28;20033;-62
2022/06/25 03:09:21;;;;;;;0.65;0.32;;;16.30;99.90;;;;;;5030504;28;20025;-62
2022/06/25 03:11:47;;;;;;;1.30;1.00;;;16.30;99.90;;;;;;5029428;28;20053;-62
2022/06/25 03:14:13;;;;;;;0.52;0.52;;;16.20;99.90;;;;;;5030383;28;20056;-62
2022/06/25 03:16:38;;;;;;;0.17;0.17;;;16.10;99.90;;;;;;5030788;28;20029;-62
2022/06/25 03:19:04;;;;;;;1.30;0.90;;;16.10;99.90;;;;;;5033294;28;20076;-62
2022/06/25 03:21:30;;;;;;;0.00;0.00;;;16.10;99.90;;;;;;5034593;28;20030;-62
2022/06/25 03:23:56;;;;;;;0.20;0.20;;;16.10;99.90;;;;;;5033796;28;20033;-62
2022/06/25 03:26:21;;;;;;;0.00;0.00;;;16.10;99.90;;;;;;5034247;28;20040;-62
2022/06/25 03:28:47;;;;;;;0.00;0.00;;;16.10;99.90;;;;;;5034078;28;20034;-62
2022/06/25 03:31:13;;;;;;;0.10;0.10;;;16.10;99.90;;;;;;5034101;28;20091;-62
2022/06/25 03:33:39;;;;;;;2.00;0.30;;;16.10;99.90;;;;;;5033580;28;20041;-62
2022/06/25 03:36:05;;;;;;;0.73;0.47;;;16.00;99.90;;;;;;5034036;28;20029;-62
2022/06/25 03:38:30;;;;;;;0.03;0.03;;;16.00;99.90;;;;;;5034005;28;20075;-62
2022/06/25 03:43:41;;;;;;;0.08;0.08;;;16.10;99.90;;;;;;5033494;28;20033;-62
2022/06/25 03:46:07;;;;;;;0.10;0.10;;;16.10;99.90;;;;;;5032864;28;20550;-62
2022/06/25 03:48:34;;;;;;;0.80;0.80;;;16.10;99.90;;;;;;5033757;28;20041;-62
2022/06/25 03:50:59;;;;;;;0.77;0.55;;;16.10;99.90;;;;;;5033846;28;20397;-62
2022/06/25 03:53:25;;;;;;;0.15;0.15;;;16.20;99.90;;;;;;5033294;28;20026;-62
2022/06/25 03:55:51;;;;;;;0.30;0.30;;;16.20;99.90;;;;;;5033465;28;20109;-61
2022/06/25 03:58:17;;;;;;;0.85;0.63;;;16.20;99.90;;;;;;5033930;28;20037;-62
2022/06/25 04:00:43;;;;;;;0.32;0.20;;;16.20;99.90;;;;;;5033830;28;20468;-61
2022/06/25 04:03:08;;;;;;;0.30;0.30;;;16.30;99.90;;;;;;5033145;28;20049;-61
2022/06/25 04:05:34;;;;;;;0.13;0.13;;;16.30;99.90;;;;;;5033606;28;20036;-62
2022/06/25 04:08:00;;;;;;;2.92;1.35;;;16.30;99.90;;;;;;5033653;28;20033;-61
2022/06/25 04:10:25;;;;;;;0.10;0.10;;;16.20;99.90;;;;;;5033322;28;20438;-61
2022/06/25 04:12:51;;;;;;;0.52;0.52;;;16.20;99.90;;;;;;5031599;28;20044;-62
2022/06/25 04:15:17;;;;;;;0.20;0.20;;;16.20;99.90;;;;;;5033401;28;20068;-62
2022/06/25 04:17:43;;;;;;;0.40;0.35;;;16.20;99.90;;;;;;5033590;28;20033;-61
2022/06/25 04:20:10;;;;;;;0.10;0.10;;;16.30;99.90;;;;;;5033164;28;20063;-61
2022/06/25 04:22:37;;;;;;;0.03;0.03;;;16.30;99.90;;;;;;5031767;28;20373;-61
2022/06/25 04:25:03;;;;;;;1.27;0.70;;;16.30;99.90;;;;;;5031756;28;20064;-61
2022/06/25 04:30:13;;;;;;;0.08;0.08;;;16.40;99.90;;;;;;5032197;28;20520;-62
2022/06/25 04:32:39;;;;;;;0.40;0.40;;;16.40;99.90;;;;;;5031625;28;20038;-62
2022/06/25 04:35:06;;;;;;;0.88;0.77;;;16.40;99.90;;;;;;5031680;28;20025;-61
2022/06/25 04:37:31;;;;;;;6.35;0.82;;;16.40;99.90;;;;;;5031811;28;20029;-61
2022/06/25 04:39:57;;;;;;;1.05;0.73;;;16.40;99.90;;;;;;5032693;28;20036;-61
2022/06/25 04:42:23;;;;;;;0.57;0.30;;;16.50;99.90;;;;;;5032746;28;20053;-62
2022/06/25 04:44:48;;;;;;;0.77;0.57;;;16.60;99.90;;;;;;5026790;28;20036;-62
2022/06/25 04:47:14;;;;;;;1.85;0.52;;;16.60;99.90;;;;;;5032812;28;20075;-62
2022/06/25 04:49:40;;;;;;;0.00;0.00;;;16.60;99.90;;;;;;5020412;28;20034;-61
2022/06/25 04:52:06;;;;;;;0.10;0.10;;;16.60;99.90;;;;;;5032894;28;20110;-62
2022/06/25 04:54:31;;;;;;;0.08;0.08;;;16.70;99.90;;;;;;5032375;28;20032;-61
2022/06/25 04:56:58;;;;;;;0.20;0.20;;;16.80;99.90;;;;;;5032528;28;20442;-63
2022/06/25 04:59:23;;;;;;;14.20;1.30;;;16.80;99.90;;;;;;5031089;28;20489;-62
2022/06/25 05:01:50;;;;;;;0.20;0.20;;;16.80;99.90;;;;;;5030573;28;20105;-62
2022/06/25 05:04:16;;;;;;;0.63;0.52;;;16.90;99.90;;;;;;5031718;28;20038;-62
2022/06/25 05:06:42;;;;;;;1.20;0.25;;;16.90;99.90;;;;;;5032175;28;20065;-74
2022/06/25 05:09:10;;;;;;;0.47;0.47;;;16.90;99.90;;;;;;5030770;28;20030;-74
2022/06/25 05:11:35;;;;;;;0.40;0.40;;;16.90;99.90;;;;;;5031456;28;20089;-73
2022/06/25 05:14:01;;;;;;;0.20;0.20;;;17.00;99.90;;;;;;5024496;28;20145;-74
2022/06/25 05:16:27;;;;;;;1.45;0.63;;;17.00;99.90;;;;;;5027700;28;20102;-74
2022/06/25 05:18:53;;;;;;;0.15;0.15;;;17.00;99.90;;;;;;5032270;28;20045;-73
2022/06/25 05:21:18;;;;;;;0.70;0.70;;;17.10;99.90;;;;;;5031735;28;20026;-73
2022/06/25 05:23:45;;;;;;;33.90;1.17;;;17.20;99.90;;;;;;5030851;28;20496;-74
2022/06/25 05:26:10;;;;;;;0.10;0.10;;;17.20;99.90;;;;;;5030621;28;20033;-74
2022/06/25 05:28:37;;;;;;;4.10;0.52;;;17.30;99.90;;;;;;5030668;28;20558;-74
2022/06/25 05:31:03;;;;;;;0.10;0.10;;;17.30;99.90;;;;;;5030257;28;20030;-65
2022/06/25 05:33:29;;;;;;;0.50;0.45;;;17.40;99.90;;;;;;5030057;28;20099;-66
2022/06/25 05:35:55;;;;;;;0.20;0.20;;;17.40;99.90;;;;;;5013815;28;20461;-67
2022/06/25 05:38:21;;;;;;;0.10;0.10;;;17.50;99.90;;;;;;5031451;28;20033;-67
2022/06/25 05:40:47;;;;;;;0.10;0.10;;;17.40;99.90;;;;;;5031413;28;20114;-67
2022/06/25 05:43:13;;;;;;;0.10;0.10;;;17.50;99.90;;;;;;5028040;28;20323;-67
2022/06/25 05:45:38;;;;;;;1.35;1.15;;;17.50;99.90;;;;;;5011834;28;20417;-68
2022/06/25 05:48:04;;;;;;;0.35;0.35;;;17.50;99.90;;;;;;5011785;28;20030;-67
2022/06/25 05:50:31;;;;;;;0.60;0.60;;;17.60;99.90;;;;;;5011727;28;20041;-66
2022/06/25 05:52:57;;;;;;;0.68;0.40;;;17.60;99.90;;;;;;5011350;28;20034;-66
2022/06/25 05:55:24;;;;;;;0.10;0.10;;;17.80;99.90;;;;;;5011464;28;20034;-67
2022/06/25 05:57:51;;;;;;;2.80;1.08;;;17.90;99.90;;;;;;5011576;28;20022;-66
2022/06/25 06:00:18;;;;;;;0.20;0.20;;;17.90;99.90;;;;;;5010118;28;20493;-67
2022/06/25 06:02:44;;;;;;;0.05;0.05;;;17.90;99.90;;;;;;5027036;28;20112;-66
2022/06/25 06:05:19;;;;;;;0.22;0.22;;;18.00;99.90;;;;;;5031550;28;20028;-66
2022/06/25 06:07:44;;;;;;;6.97;1.55;;;18.20;99.90;;;;;;5031317;28;20512;-66
2022/06/25 06:10:10;;;;;;;0.30;0.30;;;18.00;99.90;;;;;;5030050;28;20037;-66
2022/06/25 06:12:36;;;;;;;0.08;0.08;;;18.10;99.90;;;;;;5031061;28;20389;-65
2022/06/25 06:15:03;;;;;;;0.38;0.38;;;18.20;99.90;;;;;;5029753;28;20025;-66
2022/06/25 06:17:29;;;;;;;11.10;2.05;;;18.10;99.90;;;;;;5029870;28;20021;-65
2022/06/25 06:19:55;;;;;;;0.03;0.03;;;18.20;99.90;;;;;;5030083;28;20048;-65
2022/06/25 06:22:21;;;;;;;1.75;0.55;;;18.20;99.90;;;;;;5030618;28;20473;-65
2022/06/25 06:24:47;;;;;;;0.00;0.00;;;18.30;99.90;;;;;;5030805;28;20049;-64
2022/06/25 06:27:12;;;;;;;0.20;0.20;;;18.30;99.90;;;;;;5031017;28;20045;-64
2022/06/25 06:29:38;;;;;;;0.20;0.20;;;18.30;99.90;;;;;;5031001;28;20052;-63
2022/06/25 06:32:05;;;;;;;0.98;0.50;;;18.30;99.90;;;;;;5030606;28;20030;-64
2022/06/25 06:34:30;;;;;;;1.15;0.93;;;18.40;99.90;;;;;;5046241;28;20496;-64
2022/06/25 06:36:56;;;;;;;3.60;1.23;;;18.60;99.90;;;;;;5030858;28;20032;-64
2022/06/25 06:39:22;;;;;;;0.00;0.00;;;18.70;99.90;;;;;;5025648;28;20029;-65
2022/06/25 06:41:47;;;;;;;0.40;0.40;;;18.80;99.90;;;;;;5024951;28;20399;-65
2022/06/25 06:44:13;;;;;;;0.85;0.55;;;18.80;99.90;;;;;;5029520;28;20033;-65
2022/06/25 06:46:40;;;;;;;0.40;0.30;;;18.80;99.90;;;;;;5010977;28;20077;-66
2022/06/25 06:49:06;;;;;;;1.65;0.43;;;18.90;99.90;;;;;;5010992;28;20460;-65
2022/06/25 06:51:31;;;;;;;0.20;0.20;;;18.90;99.90;;;;;;5011282;28;20026;-66
2022/06/25 06:53:57;;;;;;;0.35;0.35;;;19.00;99.90;;;;;;5012828;28;20116;-65
2022/06/25 06:56:23;;;;;;;0.00;0.00;;;19.00;99.90;;;;;;5016376;28;20026;-65
2022/06/25 06:58:48;;;;;;;0.20;0.20;;;19.10;99.90;;;;;;5034251;28;20053;-65
2022/06/25 07:01:14;;;;;;;6.38;0.50;;;19.10;99.90;;;;;;5033985;28;20029;-66
2022/06/25 07:03:40;;;;;;;6.57;1.92;;;19.30;99.90;;;;;;5036798;28;20447;-65
2022/06/25 07:06:06;;;;;;;0.20;0.20;;;19.30;99.90;;;;;;5034516;28;20033;-65
2022/06/25 07:08:32;;;;;;;1.35;1.17;;;19.40;99.90;;;;;;5032139;28;20042;-66
2022/06/25 07:10:57;;;;;;;0.20;0.20;;;19.40;99.90;;;;;;5014682;28;20038;-65
2022/06/25 07:13:23;;;;;;;6.28;4.15;;;19.40;99.90;;;;;;5017735;28;20056;-65
2022/06/25 07:15:49;;;;;;;0.75;0.45;;;19.50;99.90;;;;;;5034078;28;20025;-65
2022/06/25 07:18:15;;;;;;;0.08;0.08;;;19.60;99.90;;;;;;5025786;28;20040;-65
2022/06/25 07:20:41;;;;;;;11.98;6.30;;;19.80;99.90;;;;;;5026015;28;20108;-67
2022/06/25 07:23:10;;;;;;;0.43;0.38;;;19.80;99.90;;;;;;5033679;28;20588;-68
2022/06/25 07:25:36;;;;;;;0.22;0.20;;;19.80;99.90;;;;;;5032608;28;20044;-68
2022/06/25 07:28:02;;;;;;;15.30;5.13;;;20.00;99.90;;;;;;5033988;28;20034;-69
2022/06/25 07:30:27;;;;;;;46.70;4.22;;;20.10;99.90;;;;;;5033666;28;20041;-68
2022/06/25 07:32:53;;;;;;;24.23;2.67;;;20.30;99.90;;;;;;5033647;28;20096;-69
2022/06/25 07:35:19;;;;;;;2.65;1.27;;;20.40;99.90;;;;;;5033820;28;20377;-68
2022/06/25 07:37:45;;;;;;;0.10;0.10;;;20.60;99.90;;;;;;5034319;28;20525;-68
2022/06/25 07:40:11;;;;;;;0.00;0.00;;;20.50;99.90;;;;;;5033854;28;20481;-69
2022/06/25 07:42:37;;;;;;;0.32;0.32;;;20.60;99.90;;;;;;5033635;28;20163;-69
2022/06/25 07:45:03;;;;;;;0.10;0.10;;;20.50;99.90;;;;;;5033426;28;20116;-68
2022/06/25 07:47:37;;;;;;;0.55;0.30;;;20.40;99.90;;;;;;5033690;28;20037;-68
2022/06/25 07:52:50;;;;;;;0.70;0.70;;;20.60;99.90;;;;;;5033423;28;20155;-69
2022/06/25 07:55:16;;;;;;;1.08;1.00;;;20.80;99.90;;;;;;5033367;28;20523;-69
2022/06/25 07:57:43;;;;;;;0.52;0.52;;;21.00;99.90;;;;;;5048767;28;20044;-69
2022/06/25 08:00:09;;;;;;;0.17;0.17;;;21.10;99.90;;;;;;5033677;28;20076;-69
2022/06/25 08:02:35;;;;;;;0.30;0.30;;;21.00;99.90;;;;;;5033260;28;20116;-69
2022/06/25 08:05:02;;;;;;;0.63;0.63;;;21.00;99.90;;;;;;5030798;28;20569;-68
2022/06/25 08:07:27;;;;;;;0.70;0.38;;;21.10;99.90;;;;;;5033339;28;20509;-69
2022/06/25 08:09:53;;;;;;;0.85;0.60;;;20.90;99.90;;;;;;5033168;28;20125;-69
2022/06/25 08:12:19;;;;;;;0.45;0.45;;;21.00;99.90;;;;;;5032711;28;20068;-69
2022/06/25 08:14:44;;;;;;;0.03;0.03;;;21.20;99.90;;;;;;5033062;28;20034;-70
2022/06/25 08:17:10;;;;;;;0.00;0.00;;;21.40;99.90;;;;;;5033484;28;20441;-67
2022/06/25 08:19:36;;;;;;;11.18;1.45;;;21.60;99.90;;;;;;5032589;28;20022;-69
2022/06/25 08:22:02;;;;;;;0.03;0.03;;;21.40;99.90;;;;;;5033011;28;20033;-69
2022/06/25 08:24:28;;;;;;;0.00;0.00;;;21.30;99.90;;;;;;5032743;28;20104;-69
2022/06/25 08:26:54;;;;;;;0.13;0.10;;;21.20;99.90;;;;;;5031418;28;20068;-68
2022/06/25 08:29:19;;;;;;;0.00;0.00;;;21.50;99.90;;;;;;5032080;28;20060;-69
2022/06/25 08:31:45;;;;;;;0.00;0.00;;;21.70;99.90;;;;;;5032898;28;20022;-69
2022/06/25 08:34:11;;;;;;;0.17;0.10;;;21.70;99.90;;;;;;5031673;28;20164;-69
2022/06/25 08:36:39;;;;;;;0.85;0.70;;;21.90;99.90;;;;;;5031026;28;20029;-70
2022/06/25 08:39:05;;;;;;;0.00;0.00;;;21.80;99.90;;;;;;5033095;28;20230;-69
2022/06/25 08:41:31;;;;;;;0.28;0.28;;;21.70;99.90;;;;;;5031484;28;20017;-69
2022/06/25 08:43:57;;;;;;;0.10;0.10;;;21.70;99.90;;;;;;5031663;28;20389;-69
2022/06/25 08:46:23;;;;;;;0.00;0.00;;;22.00;99.90;;;;;;5032803;28;20152;-68
2022/06/25 08:48:50;;;;;;;0.22;0.15;;;22.10;99.90;;;;;;5032825;28;20201;-68
2022/06/25 08:51:20;;;;;;;0.22;0.20;;;21.90;99.90;;;;;;5032240;28;20512;-68
2022/06/25 08:53:47;;;;;;;1.33;0.93;;;21.60;99.90;;;;;;5030752;28;20037;-70
2022/06/25 08:56:18;;;;;;;0.30;0.30;;;21.70;99.90;;;;;;5015636;28;20052;-69
2022/06/25 08:58:44;;;;;;;1.30;1.08;;;21.80;99.90;;;;;;5031332;28;20037;-69
2022/06/25 09:01:10;;;;;;;0.00;0.00;;;22.00;99.90;;;;;;5030912;28;20354;-69
2022/06/25 09:03:37;;;;;;;0.20;0.20;;;22.20;99.90;;;;;;5030596;28;20397;-69
2022/06/25 09:06:17;;;;;;;0.00;0.00;;;22.20;99.90;;;;;;5034853;28;20024;-68
2022/06/25 09:09:04;;;;;;;0.20;0.20;;;22.40;99.90;;;;;;5032642;28;20029;-68
2022/06/25 09:11:30;;;;;;;0.30;0.30;;;22.70;99.90;;;;;;5032006;28;20276;-68
2022/06/25 09:14:22;;;;;;;15.57;0.60;;;22.80;99.90;;;;;;5031729;28;20510;-68
2022/06/25 09:17:12;;;;;;;0.00;0.00;;;23.10;99.90;;;;;;5019033;28;20113;-68
2022/06/25 09:19:47;;;;;;;0.10;0.10;;;23.40;99.90;;;;;;5012531;28;20437;-68
2022/06/25 09:22:17;;;;;;;0.20;0.20;;;23.40;99.90;;;;;;5010834;28;20045;-68
2022/06/25 09:24:57;;;;;;;0.00;0.00;;;23.10;99.90;;;;;;5011242;28;20029;-69
2022/06/25 09:27:33;;;;;;;0.10;0.10;;;23.20;99.90;;;;;;5012589;28;20211;-69
2022/06/25 09:30:11;;;;;;;0.35;0.08;;;23.50;99.90;;;;;;5011911;28;20069;-68
2022/06/25 09:32:54;;;;;;;1.10;0.75;;;23.60;99.90;;;;;;5010478;28;20030;-69
2022/06/25 09:35:39;;;;;;;3.22;0.20;;;23.30;99.90;;;;;;5010898;28;20033;-69
2022/06/25 09:38:09;;;;;;;0.90;0.85;;;23.20;99.90;;;;;;5010960;28;20025;-69
2022/06/25 09:40:36;;;;;;;0.00;0.00;;;23.50;99.90;;;;;;5012008;28;20124;-68
2022/06/25 09:43:37;;;;;;;0.52;0.47;;;23.50;99.90;;;;;;5009595;28;20038;-69
2022/06/25 09:46:06;;;;;;;0.05;0.05;;;23.70;99.90;;;;;;4997461;28;20050;-70
2022/06/25 09:48:35;;;;;;;1.27;0.88;;;23.40;99.90;;;;;;5010391;28;20109;-68
2022/06/25 09:51:15;;;;;;;0.13;0.13;;;23.60;99.90;;;;;;5010571;28;20113;-68
2022/06/25 09:53:58;;;;;;;0.43;0.43;;;23.80;99.90;;;;;;5010107;28;20034;-69
2022/06/25 09:56:31;;;;;;;0.10;0.10;;;24.00;99.90;;;;;;5010576;28;20030;-68
2022/06/25 09:58:58;;;;;;;0.10;0.08;;;24.00;99.90;;;;;;5011909;28;20026;-68
2022/06/25 10:01:32;;;;;;;0.03;0.03;;;23.80;99.90;;;;;;5011564;28;20113;-68
2022/06/25 10:04:03;;;;;;;0.22;0.13;;;23.70;99.90;;;;;;5011349;28;20036;-67
2022/06/25 10:06:34;;;;;;;0.57;0.52;;;23.70;99.90;;;;;;5011683;28;20030;-68
2022/06/25 10:09:04;;;;;;;0.30;0.25;;;24.00;99.90;;;;;;5010258;28;20033;-68
2022/06/25 10:11:31;;;;;;;0.00;0.00;;;24.50;99.90;;;;;;5010292;28;20026;-68
2022/06/25 10:13:58;;;;;;;0.10;0.00;;;24.60;99.90;;;;;;5011517;28;20114;-68
2022/06/25 10:16:26;;;;;;;0.20;0.20;;;24.60;99.90;;;;;;5010131;28;20057;-68
2022/06/25 10:18:52;;;;;;;1.02;0.30;;;24.60;99.90;;;;;;5010376;28;20030;-68
2022/06/25 10:21:23;;;;;;;0.00;0.00;;;24.90;99.90;;;;;;5011236;28;20022;-68
2022/06/25 10:24:00;;;;;;;0.00;0.00;;;24.90;99.90;;;;;;5011323;28;20546;-68
2022/06/25 10:26:26;;;;;;;0.10;0.10;;;25.30;99.90;;;;;;5010108;28;20038;-68
2022/06/25 10:28:52;;;;;;;1.45;0.85;;;25.50;99.90;;;;;;5009527;28;20816;-68
2022/06/25 10:31:19;;;;;;;0.30;0.20;;;25.60;99.30;;;;;;5011075;28;20029;-69
2022/06/25 10:33:59;;;;;;;0.47;0.47;;;25.30;99.60;;;;;;5009994;28;20026;-68
2022/06/25 10:36:46;;;;;;;;;;;25.30;99.90;;;;;;5010744;28;20087;-69
2022/06/25 10:39:27;;;;;;;0.70;0.10;;;25.40;98.90;;;;;;5011514;28;19910;-68
2022/06/25 10:45:13;;;;;;;0.28;0.28;;;25.80;99.90;;;;;;4989183;28;20059;-68
2022/06/25 10:47:50;;;;;;;0.00;0.00;;;25.60;99.90;;;;;;5009618;28;20132;-69
2022/06/25 10:50:22;;;;;;;0.00;0.00;;;25.30;99.80;;;;;;5010321;28;20033;-69
2022/06/25 10:53:03;;;;;;;0.38;0.28;;;25.70;99.90;;;;;;5010472;28;20061;-68
2022/06/25 10:55:46;;;;;;;0.90;0.70;;;26.00;99.70;;;;;;5026396;28;20036;-69
2022/06/25 10:58:13;;;;;;;0.00;0.00;;;25.90;98.40;;;;;;5011141;28;20030;-69
2022/06/25 11:00:47;;;;;;;0.10;0.10;;;25.60;98.00;;;;;;5011120;28;20030;-69
2022/06/25 11:03:13;;;;;;;0.00;0.00;;;25.50;97.60;;;;;;5009449;28;20467;-69
2022/06/25 11:05:45;;;;;;;0.00;0.00;;;25.10;98.30;;;;;;5011384;28;20026;-69
2022/06/25 11:08:12;;;;;;;0.20;0.10;;;24.90;99.00;;;;;;5009970;28;20045;-69
2022/06/25 11:10:40;;;;;;;0.00;0.00;;;25.30;98.80;;;;;;5009979;28;20563;-69
2022/06/25 11:13:07;;;;;;;1.27;0.88;;;25.30;99.50;;;;;;5010642;28;20030;-69
2022/06/25 11:15:44;;;;;;;0.00;0.00;;;25.90;98.80;;;;;;5010867;28;20029;-69
2022/06/25 11:18:13;;;;;;;0.00;0.00;;;26.10;97.50;;;;;;5009891;28;20026;-69
2022/06/25 11:20:41;;;;;;;0.00;0.00;;;26.00;97.00;;;;;;5009819;28;20366;-69
2022/06/25 11:23:12;;;;;;;0.32;0.32;;;25.80;96.90;;;;;;5010382;28;20481;-69
2022/06/25 11:28:48;;;;;;;6.68;0.93;;;25.10;97.10;;;;;;5010895;28;20393;-69
2022/06/25 11:31:14;;;;;;;0.00;0.00;;;25.50;97.20;;;;;;5010804;28;20034;-69
2022/06/25 11:33:41;;;;;;;0.40;0.20;;;25.50;97.40;;;;;;5026786;28;20080;-69
2022/06/25 11:36:15;;;;;;;0.85;0.82;;;25.40;97.60;;;;;;5030801;28;20091;-69
2022/06/25 11:38:43;;;;;;;0.20;0.20;;;25.40;98.40;;;;;;5030414;28;20080;-69
2022/06/25 11:41:30;;;;;;;0.30;0.20;;;25.70;97.70;;;;;;5033168;28;20026;-69
2022/06/25 11:44:05;;;;;;;0.00;0.00;;;25.70;96.70;;;;;;5032264;28;20033;-69
2022/06/25 11:46:36;;;;;;;0.52;0.35;;;26.00;96.80;;;;;;5033913;28;20037;-69
2022/06/25 11:49:05;;;;;;;0.10;0.10;;;26.40;96.30;;;;;;5032557;28;20293;-69
2022/06/25 11:51:32;;;;;;;0.00;0.00;;;26.70;96.40;;;;;;5033874;28;20033;-69
2022/06/25 11:54:04;;;;;;;0.20;0.13;;;27.20;94.90;;;;;;5031935;28;20127;-69
2022/06/25 11:56:31;;;;;;;0.32;0.25;;;27.60;93.70;;;;;;5032457;28;20036;-69
2022/06/25 11:58:56;;;;;;;0.20;0.20;;;27.40;93.80;;;;;;5032785;28;20484;-69
2022/06/25 12:01:29;;;;;;;0.15;0.08;;;27.40;93.40;;;;;;5033737;28;20039;-69
2022/06/25 12:03:55;;;;;;;0.10;0.10;;;27.20;93.40;;;;;;5033174;28;20083;-69
2022/06/25 12:06:23;;;;;;;0.00;0.00;;;27.20;93.70;;;;;;5033595;28;20400;-69
2022/06/25 12:08:50;;;;;;;0.50;0.22;;;27.40;92.60;;;;;;5032654;28;20033;-69
2022/06/25 12:11:16;;;;;;;0.10;0.10;;;27.50;92.50;;;;;;5032270;28;20029;-69
2022/06/25 12:13:42;;;;;;;0.15;0.05;;;27.70;92.60;;;;;;5031844;28;20030;-70
2022/06/25 12:16:08;;;;;;;0.75;0.65;;;27.50;92.30;;;;;;5033555;28;20025;-69
2022/06/25 12:18:37;;;;;;;0.20;0.10;;;27.60;91.90;;;;;;5031834;28;20087;-69
2022/06/25 12:21:04;;;;;;;0.10;0.10;;;27.80;88.60;;;;;;5033605;28;20481;-69
2022/06/25 12:23:49;;;;;;;0.00;0.00;;;27.80;86.80;;;;;;5031806;28;20040;-69
2022/06/25 12:26:34;;;;;;;0.08;0.08;;;27.70;84.80;;;;;;5032012;28;20029;-68
2022/06/25 12:29:12;;;;;;;0.00;0.00;;;28.10;87.10;;;;;;5015587;28;20061;-67
2022/06/25 12:31:41;;;;;;;0.15;0.00;;;28.60;87.90;;;;;;5031872;28;20069;-68
2022/06/25 12:34:09;;;;;;;0.00;0.00;;;28.80;82.40;;;;;;5031688;28;20052;-68
2022/06/25 12:36:39;;;;;;;0.00;0.00;;;28.50;81.50;;;;;;5015655;28;20037;-67
2022/06/25 12:39:31;;;;;;;0.10;0.10;;;28.50;81.50;;;;;;5016043;28;20032;-69
2022/06/25 12:42:05;;;;;;;0.00;0.00;;;28.50;80.20;;;;;;5033074;28;20039;-69
2022/06/25 12:44:33;;;;;;;0.00;0.00;;;28.50;81.60;;;;;;5031516;28;20057;-69
2022/06/25 12:47:19;;;;;;;2.30;1.90;;;28.20;81.80;;;;;;5033108;28;20092;-69
2022/06/25 12:49:49;;;;;;;0.10;0.10;;;28.70;83.90;;;;;;5032520;28;20068;-69
2022/06/25 12:52:26;;;;;;;0.00;0.00;;;28.80;81.80;;;;;;5032399;28;20076;-69
2022/06/25 12:54:54;;;;;;;0.03;0.03;;;28.20;78.80;;;;;;5031644;28;20033;-69
2022/06/25 12:57:29;;;;;;;0.00;0.00;;;28.40;79.70;;;;;;5032401;28;20396;-69
2022/06/25 12:59:57;;;;;;;0.00;0.00;;;28.20;79.30;;;;;;5032982;28;20033;-69
2022/06/25 13:02:24;;;;;;;0.00;0.00;;;28.00;78.80;;;;;;5032209;28;20087;-69
2022/06/25 13:04:50;;;;;;;0.00;0.00;;;28.40;79.80;;;;;;5031646;28;20029;-69
2022/06/25 13:07:17;;;;;;;0.00;0.00;;;28.70;79.20;;;;;;5031387;28;20095;-69
2022/06/25 13:09:45;;;;;;;0.00;0.00;;;28.80;78.10;;;;;;5032296;28;20033;-69
2022/06/25 13:12:12;;;;;;;0.20;0.20;;;28.50;78.50;;;;;;5030971;28;20034;-69
2022/06/25 13:14:39;;;;;;;0.00;0.00;;;28.60;80.60;;;;;;5031085;28;20152;-69
2022/06/25 13:17:05;;;;;;;0.00;0.00;;;28.90;76.90;;;;;;5031032;28;20057;-69
2022/06/25 13:19:32;;;;;;;0.10;0.10;;;28.60;77.90;;;;;;5032451;28;20021;-69